Time;durP1;ratioP1;P1;durP2;ratioP2;P2;SDS_P1;SDS_P2;PMS_P1;PMS_P2;Temp;Humidity;BMP_temperature;BMP_pressure;BME280_temperature;BME280_humidity;BME280_pressure;Samples;Min_cycle;Max_cycle;Signal;HPM_P1;HPM_P2
2023/05/16 04:34:36;;;;;;;12.60;6.40;;;;;;;13.34;75.98;100350.30;107682;1273;22529;-56
2023/05/16 04:37:07;;;;;;;16.80;6.30;;;;;;;13.44;75.76;100347.23;107329;1279;22522;-46
2023/05/16 04:39:35;;;;;;;16.40;7.00;;;;;;;13.55;75.71;100347.64;108377;1279;22530;-46
2023/05/16 04:42:03;;;;;;;11.70;6.80;;;;;;;13.66;75.47;100348.38;107815;1279;25457;-55
2023/05/16 04:44:30;;;;;;;11.10;6.20;;;;;;;13.79;75.03;100344.36;107322;1279;24157;-45
2023/05/16 04:46:57;;;;;;;8.80;5.80;;;;;;;13.92;74.26;100349.12;108371;1279;22431;-45
2023/05/16 04:49:25;;;;;;;14.90;6.50;;;;;;;14.02;73.68;100350.91;109879;1273;22399;-45
2023/05/16 04:51:52;;;;;;;15.00;5.70;;;;;;;14.13;73.64;100352.17;109758;1273;22219;-45
2023/05/16 04:54:19;;;;;;;14.50;6.70;;;;;;;14.24;72.91;100357.11;109864;1276;22193;-45
2023/05/16 04:56:46;;;;;;;27.70;7.20;;;;;;;14.34;73.11;100360.99;110000;1279;22912;-45
2023/05/16 04:59:13;;;;;;;16.70;6.90;;;;;;;14.44;73.21;100361.02;109910;1279;22200;-45
2023/05/16 05:01:39;;;;;;;14.80;6.30;;;;;;;14.56;72.58;100364.90;109199;1279;22565;-46
2023/05/16 05:04:07;;;;;;;29.10;7.60;;;;;;;14.69;72.19;100365.42;106970;1279;22534;-45
2023/05/16 05:06:34;;;;;;;28.40;7.60;;;;;;;14.80;71.97;100367.70;107470;1279;24244;-46
2023/05/16 05:09:01;;;;;;;21.50;6.30;;;;;;;14.92;71.52;100366.64;109174;1279;22420;-44
2023/05/16 05:11:27;;;;;;;24.30;6.20;;;;;;;15.02;71.08;100364.52;109672;1273;22729;-45
2023/05/16 05:13:54;;;;;;;22.80;6.00;;;;;;;15.12;69.11;100362.42;109003;1273;22390;-46
2023/05/16 05:16:21;;;;;;;23.10;5.30;;;;;;;15.23;67.82;100361.16;109719;1279;22402;-46
2023/05/16 05:18:49;;;;;;;21.80;5.60;;;;;;;15.32;66.50;100360.46;109726;1273;23262;-44
2023/05/16 05:21:19;;;;;;;21.10;5.30;;;;;;;15.43;65.74;100360.98;109695;1276;22689;-45
2023/05/16 05:23:48;;;;;;;15.50;5.00;;;;;;;15.55;64.82;100366.37;109557;1267;22405;-46
2023/05/16 05:26:18;;;;;;;19.00;5.30;;;;;;;15.66;64.26;100372.15;109648;1273;22421;-46
2023/05/16 05:28:48;;;;;;;15.40;5.30;;;;;;;15.76;62.97;100375.48;109672;1277;23033;-45
2023/05/16 05:31:32;;;;;;;12.90;5.10;;;;;;;15.88;61.93;100376.66;109625;1273;22445;-45
2023/05/16 05:34:18;;;;;;;22.90;5.80;;;;;;;15.98;61.97;100381.18;109271;1273;22450;-46
2023/05/16 05:45:45;;;;;;;18.00;5.50;;;;;;;16.11;58.60;100388.65;109208;1273;23273;-53
2023/05/16 05:49:26;;;;;;;10.50;4.00;;;;;;;16.10;58.50;100388.31;109195;1273;22519;-45
2023/05/16 05:52:59;;;;;;;12.50;4.40;;;;;;;16.15;58.54;100388.92;108898;1276;22383;-54
2023/05/16 05:56:16;;;;;;;;;;;;;;;16.21;58.73;100388.80;109394;1273;22487;-45
2023/05/16 05:59:16;;;;;;;13.50;6.00;;;;;;;16.23;58.16;100394.02;109521;1273;22405;-53
2023/05/16 06:05:28;;;;;;;13.40;6.50;;;;;;;16.24;56.57;100398.77;109607;1279;22475;-46
2023/05/16 06:08:00;;;;;;;11.20;6.30;;;;;;;16.21;56.96;100401.11;108955;1273;24196;-54
2023/05/16 06:10:29;;;;;;;15.80;5.70;;;;;;;16.17;56.81;100406.13;108639;1279;22728;-53
2023/05/16 06:13:00;;;;;;;17.90;5.40;;;;;;;16.13;57.33;100403.74;108249;1273;22992;-45
2023/05/16 06:15:30;;;;;;;18.30;7.00;;;;;;;16.11;57.38;100406.77;108114;1273;22395;-46
2023/05/16 06:17:58;;;;;;;12.30;6.30;;;;;;;16.11;57.75;100408.35;109162;1272;22475;-46
2023/05/16 06:20:46;;;;;;;15.20;8.50;;;;;;;16.11;57.40;100413.80;108670;1276;22979;-46
2023/05/16 06:23:14;;;;;;;13.00;8.00;;;;;;;16.10;57.03;100415.07;109313;1275;22402;-55
2023/05/16 06:26:38;;;;;;;16.90;6.90;;;;;;;16.08;57.28;100417.05;109274;1275;22530;-46
2023/05/16 06:30:00;;;;;;;15.10;5.30;;;;;;;16.07;56.89;100413.04;108573;1273;22497;-54
2023/05/16 06:32:56;;;;;;;16.80;5.50;;;;;;;16.05;57.16;100413.59;108664;1276;22837;-46
2023/05/16 06:35:41;;;;;;;20.10;5.70;;;;;;;16.04;57.12;100414.31;109444;1277;22555;-46
2023/05/16 06:38:09;;;;;;;16.90;5.20;;;;;;;16.04;56.56;100414.14;109070;1277;23113;-53
2023/05/16 06:40:36;;;;;;;15.50;5.50;;;;;;;16.05;56.17;100417.27;109228;1273;22453;-54
2023/05/16 06:43:03;;;;;;;12.90;5.50;;;;;;;16.06;55.51;100421.84;109233;1264;22511;-46
2023/05/16 06:45:31;;;;;;;12.10;4.70;;;;;;;16.09;55.48;100425.66;109017;1276;22356;-54
2023/05/16 06:47:58;;;;;;;16.70;5.90;;;;;;;16.12;55.44;100438.06;109249;1273;22397;-46
2023/05/16 06:50:25;;;;;;;13.50;5.60;;;;;;;16.17;55.57;100442.89;109327;1273;22759;-54
2023/05/16 06:52:54;;;;;;;22.00;5.40;;;;;;;16.23;55.61;100444.53;108817;1273;22404;-45
2023/05/16 06:55:23;;;;;;;17.40;5.40;;;;;;;16.30;55.10;100447.56;109163;1277;22497;-47
2023/05/16 06:57:50;;;;;;;13.40;5.20;;;;;;;16.36;54.55;100450.24;109051;1273;22533;-55
2023/05/16 07:00:18;;;;;;;8.00;5.70;;;;;;;16.42;54.11;100451.70;109683;1274;22367;-54
2023/05/16 07:02:45;;;;;;;11.70;5.10;;;;;;;16.48;54.11;100453.67;109131;1273;22553;-54
2023/05/16 07:05:13;;;;;;;9.40;5.70;;;;;;;16.57;54.19;100454.38;109175;1275;23135;-46
2023/05/16 07:08:16;;;;;;;14.80;5.30;;;;;;;16.67;53.83;100453.61;109118;1274;22408;-55
2023/05/16 07:11:20;;;;;;;11.60;5.10;;;;;;;16.83;53.24;100452.94;109491;1273;22379;-45
2023/05/16 07:14:12;;;;;;;19.30;4.70;;;;;;;16.94;52.66;100459.89;109382;1279;23849;-45
2023/05/16 07:17:03;;;;;;;12.50;4.40;;;;;;;17.06;51.90;100461.56;109168;1276;23429;-54
2023/05/16 07:23:42;;;;;;;8.70;4.00;;;;;;;17.19;51.01;100461.05;109644;1274;22482;-46
2023/05/16 07:26:27;;;;;;;13.70;5.40;;;;;;;17.24;50.66;100462.69;109196;1275;22304;-45
2023/05/16 07:28:56;;;;;;;17.60;5.10;;;;;;;17.29;50.64;100466.45;108961;1273;22975;-54
2023/05/16 07:31:25;;;;;;;15.50;5.40;;;;;;;17.37;50.69;100470.13;109042;1274;22443;-53
2023/05/16 07:33:52;;;;;;;16.50;5.60;;;;;;;17.47;50.29;100465.64;109101;1278;22954;-46
2023/05/16 07:36:20;;;;;;;14.90;6.40;;;;;;;17.57;50.10;100465.58;109593;1273;22184;-47
2023/05/16 07:38:47;;;;;;;14.90;5.80;;;;;;;17.65;49.39;100466.61;109347;1276;22944;-54
2023/05/16 07:41:14;;;;;;;10.00;6.00;;;;;;;17.68;49.52;100467.91;109094;1277;23311;-46
2023/05/16 07:43:41;;;;;;;13.70;6.10;;;;;;;17.71;49.24;100463.09;109750;1279;23332;-46
2023/05/16 07:46:09;;;;;;;17.50;7.20;;;;;;;17.74;49.46;100455.61;109648;1279;23152;-53
2023/05/16 07:48:38;;;;;;;22.00;7.60;;;;;;;17.76;49.23;100456.63;108752;1274;22537;-46
2023/05/16 07:51:08;;;;;;;14.20;7.40;;;;;;;17.73;47.84;100452.30;109450;1274;24179;-49
2023/05/16 07:53:35;;;;;;;19.20;7.90;;;;;;;17.68;47.23;100446.23;109580;1273;22825;-45
2023/05/16 07:56:04;;;;;;;29.10;11.80;;;;;;;17.65;47.73;100435.74;109622;1271;22672;-54
2023/05/16 07:58:34;;;;;;;30.20;11.90;;;;;;;17.66;48.12;100422.65;109334;1272;22765;-53
2023/05/16 08:01:02;;;;;;;24.30;9.60;;;;;;;17.70;47.68;100411.79;109256;1273;22495;-55
2023/05/16 08:03:30;;;;;;;17.00;6.50;;;;;;;17.74;47.04;100413.45;109296;1276;23069;-46
2023/05/16 08:06:20;;;;;;;13.40;4.90;;;;;;;17.79;46.07;100420.39;109296;1272;23156;-55
2023/05/16 08:09:31;;;;;;;9.30;4.40;;;;;;;17.81;44.69;100422.43;108890;1271;22396;-45
2023/05/16 08:13:01;;;;;;;18.60;5.00;;;;;;;17.86;45.04;100428.14;108272;1274;22578;-55
2023/05/16 08:20:00;;;;;;;10.80;5.40;;;;;;;18.00;43.58;100426.14;109333;1276;23024;-46
2023/05/16 08:30:33;;;;;;;16.10;7.20;;;;;;;18.22;42.88;100427.48;108335;1275;23746;-45
2023/05/16 08:33:03;;;;;;;14.90;5.50;;;;;;;18.23;42.98;100425.48;109295;1273;22517;-53
2023/05/16 08:35:31;;;;;;;11.50;4.80;;;;;;;18.26;42.85;100422.92;109457;1276;22424;-46
2023/05/16 08:37:59;;;;;;;15.20;4.40;;;;;;;18.27;42.79;100416.88;109374;1273;22403;-53
2023/05/16 08:40:27;;;;;;;10.00;3.60;;;;;;;18.30;43.06;100410.27;109203;1276;23711;-53
2023/05/16 08:43:00;;;;;;;14.10;4.20;;;;;;;18.34;41.98;100410.66;109531;1273;22557;-45
2023/05/16 08:50:17;;;;;;;11.80;5.50;;;;;;;18.45;41.43;100409.27;109612;1274;22451;-54
2023/05/16 08:54:17;;;;;;;8.00;5.00;;;;;;;18.50;40.87;100402.79;109811;1273;22359;-46
2023/05/16 08:57:58;;;;;;;13.20;5.50;;;;;;;18.52;41.18;100398.46;109731;1273;22491;-46
2023/05/16 09:05:02;;;;;;;13.80;5.00;;;;;;;18.56;41.63;100395.70;109777;1273;22371;-47
2023/05/16 09:08:30;;;;;;;8.50;4.10;;;;;;;18.59;42.20;100391.16;109704;1273;22464;-46
2023/05/16 09:15:45;;;;;;;8.30;3.40;;;;;;;18.70;41.54;100401.67;109626;1273;22402;-54
2023/05/16 09:18:38;;;;;;;11.00;4.10;;;;;;;18.67;42.19;100401.04;109741;1274;22364;-54
2023/05/16 09:21:17;;;;;;;10.20;5.20;;;;;;;18.69;41.93;100400.45;108474;1276;24279;-55
2023/05/16 09:23:45;;;;;;;11.90;5.10;;;;;;;18.71;42.08;100400.73;108642;1273;22586;-46
2023/05/16 09:26:18;;;;;;;3.90;3.40;;;;;;;18.74;42.00;100393.23;109421;1279;22660;-46
2023/05/16 09:29:18;;;;;;;13.90;4.40;;;;;;;18.76;41.60;100397.73;109332;1272;23339;-46
2023/05/16 09:39:56;;;;;;;6.60;2.60;;;;;;;18.86;40.17;100405.52;109614;1273;22449;-55
2023/05/16 09:42:32;;;;;;;4.40;2.80;;;;;;;18.87;38.89;100405.17;109424;1266;22242;-45
2023/05/16 09:45:10;;;;;;;10.10;2.50;;;;;;;18.85;38.08;100405.94;109136;1274;22531;-54
2023/05/16 09:47:44;;;;;;;9.40;2.80;;;;;;;18.84;38.00;100402.77;109515;1275;22392;-55
2023/05/16 09:50:15;;;;;;;5.10;2.80;;;;;;;18.84;38.36;100403.66;109568;1276;22687;-54
2023/05/16 09:52:43;;;;;;;11.30;2.70;;;;;;;18.85;37.92;100406.30;109625;1275;22400;-54
2023/05/16 09:55:16;;;;;;;9.50;2.70;;;;;;;18.86;38.13;100404.50;109338;1280;22353;-48
2023/05/16 09:57:43;;;;;;;7.50;2.10;;;;;;;18.87;37.82;100402.70;109607;1278;22169;-47
2023/05/16 10:00:12;;;;;;;9.10;2.60;;;;;;;18.88;37.92;100403.88;109357;1276;23899;-53
2023/05/16 10:02:39;;;;;;;4.90;2.50;;;;;;;18.92;37.94;100403.59;109229;1281;22332;-47
2023/05/16 10:05:07;;;;;;;6.60;2.70;;;;;;;18.96;37.85;100403.81;109332;1281;22491;-46
2023/05/16 10:07:34;;;;;;;10.00;2.50;;;;;;;19.00;38.23;100402.79;109367;1281;22913;-46
2023/05/16 10:10:07;;;;;;;8.50;2.80;;;;;;;19.04;38.40;100403.92;109225;1281;22286;-46
2023/05/16 10:12:34;;;;;;;4.10;2.20;;;;;;;19.07;38.19;100406.61;109357;1281;22479;-55
2023/05/16 10:15:02;;;;;;;5.40;2.00;;;;;;;19.09;38.03;100406.73;109324;1274;22540;-46
2023/05/16 10:17:31;;;;;;;3.30;2.20;;;;;;;19.13;37.14;100407.13;109260;1278;23052;-46
2023/05/16 10:20:04;;;;;;;5.90;2.40;;;;;;;19.14;37.24;100406.56;109420;1276;23121;-55
2023/05/16 10:22:34;;;;;;;7.20;2.00;;;;;;;19.17;37.19;100405.94;109319;1281;22392;-54
2023/05/16 10:25:09;;;;;;;12.60;2.30;;;;;;;19.19;36.79;100404.46;109377;1281;22718;-54
2023/05/16 10:27:36;;;;;;;7.20;2.10;;;;;;;19.21;37.38;100405.46;109442;1281;22920;-54
2023/05/16 10:30:04;;;;;;;7.00;1.70;;;;;;;19.25;37.30;100408.68;109409;1281;22445;-54
2023/05/16 10:32:31;;;;;;;7.60;2.20;;;;;;;19.27;36.80;100409.15;109573;1281;22380;-46
2023/05/16 10:35:02;;;;;;;5.70;2.50;;;;;;;19.27;36.69;100406.16;109563;1281;22390;-46
2023/05/16 10:37:29;;;;;;;11.20;1.90;;;;;;;19.27;36.30;100408.44;109644;1281;22887;-53
2023/05/16 10:39:58;;;;;;;7.20;2.20;;;;;;;19.27;36.24;100405.78;109732;1281;22465;-54
2023/05/16 10:42:25;;;;;;;12.50;2.20;;;;;;;19.27;36.03;100410.38;109687;1281;22398;-54
2023/05/16 10:44:55;;;;;;;5.90;2.30;;;;;;;19.27;36.36;100409.50;109818;1281;22252;-54
2023/05/16 10:47:31;;;;;;;6.60;2.10;;;;;;;19.30;37.26;100412.91;109868;1281;22294;-46
2023/05/16 10:49:58;;;;;;;9.30;2.20;;;;;;;19.36;36.87;100413.61;109749;1281;22935;-45
2023/05/16 10:52:32;;;;;;;7.00;2.30;;;;;;;19.39;36.62;100416.16;109822;1281;22479;-46
2023/05/16 10:55:01;;;;;;;5.80;3.00;;;;;;;19.39;36.60;100406.77;109806;1281;23027;-46
2023/05/16 10:57:28;;;;;;;5.10;2.20;;;;;;;19.40;36.48;100403.56;107687;1281;25346;-44
2023/05/16 11:00:00;;;;;;;12.30;2.20;;;;;;;19.39;36.33;100403.77;106614;1282;22549;-46
2023/05/16 11:02:32;;;;;;;9.80;1.90;;;;;;;19.37;36.46;100402.95;107207;1281;25320;-45
2023/05/16 11:05:00;;;;;;;8.30;1.90;;;;;;;19.35;36.81;100397.87;107267;1281;22624;-54
2023/05/16 11:07:35;;;;;;;4.70;2.00;;;;;;;19.35;36.79;100393.13;108853;1281;23298;-44
2023/05/16 11:10:10;;;;;;;18.30;3.40;;;;;;;19.35;36.73;100389.59;109092;1281;22290;-45
2023/05/16 11:12:44;;;;;;;8.80;2.00;;;;;;;19.35;36.99;100385.85;109345;1281;22537;-53
2023/05/16 11:15:23;;;;;;;12.90;2.20;;;;;;;19.38;37.28;100383.30;109100;1281;22219;-45
2023/05/16 11:18:06;;;;;;;5.60;2.00;;;;;;;19.40;37.32;100377.73;109822;1281;22376;-45
2023/05/16 11:20:35;;;;;;;6.00;1.50;;;;;;;19.42;37.21;100372.72;107034;1281;23601;-44
2023/05/16 11:23:15;;;;;;;3.70;2.10;;;;;;;19.43;37.02;100374.10;109802;1281;22215;-45
2023/05/16 11:25:44;;;;;;;6.30;1.80;;;;;;;19.44;36.88;100371.77;109550;1281;23281;-45
2023/05/16 11:28:12;;;;;;;5.40;1.90;;;;;;;19.46;36.48;100367.30;109896;1281;23097;-45
2023/05/16 11:30:43;;;;;;;9.80;2.90;;;;;;;19.47;36.02;100364.39;109836;1281;22250;-46
2023/05/16 11:33:12;;;;;;;10.60;3.20;;;;;;;19.48;35.95;100365.80;109815;1281;22276;-45
2023/05/16 11:35:39;;;;;;;13.10;2.50;;;;;;;19.48;35.99;100363.66;109833;1281;22182;-56
2023/05/16 11:38:11;;;;;;;13.00;2.80;;;;;;;19.49;36.25;100366.14;109878;1273;22241;-56
2023/05/16 11:40:41;;;;;;;5.30;2.70;;;;;;;19.50;36.52;100365.19;109153;1281;22581;-45
2023/05/16 11:43:08;;;;;;;10.50;3.50;;;;;;;19.53;36.87;100367.02;107795;1275;23907;-44
2023/05/16 11:45:36;;;;;;;9.90;3.00;;;;;;;19.55;36.61;100363.75;109591;1282;22196;-45
2023/05/16 11:48:03;;;;;;;13.40;3.30;;;;;;;19.59;36.53;100360.81;109546;1282;22329;-56
2023/05/16 11:50:32;;;;;;;12.10;3.50;;;;;;;19.61;36.60;100360.23;109853;1282;22198;-46
2023/05/16 11:52:59;;;;;;;8.40;3.80;;;;;;;19.64;36.28;100357.08;108800;1282;22698;-56
2023/05/16 11:55:29;;;;;;;8.60;4.00;;;;;;;19.68;36.21;100354.66;106758;1277;22670;-55
2023/05/16 11:58:07;;;;;;;14.00;3.80;;;;;;;19.77;35.67;100351.66;107183;1281;25220;-46
2023/05/16 12:00:34;;;;;;;8.20;3.50;;;;;;;19.88;34.97;100351.63;106944;1282;24314;-46
2023/05/16 12:03:03;;;;;;;9.30;3.80;;;;;;;20.08;34.93;100351.22;109815;1282;22863;-45
2023/05/16 12:05:31;;;;;;;7.80;4.30;;;;;;;20.39;34.50;100342.76;107258;1282;22756;-45
2023/05/16 12:08:01;;;;;;;7.70;3.50;;;;;;;20.76;34.67;100336.65;109848;1283;22175;-47
2023/05/16 12:10:30;;;;;;;12.40;3.50;;;;;;;21.14;33.46;100332.38;109869;1282;22261;-56
2023/05/16 12:12:57;;;;;;;11.60;3.10;;;;;;;21.43;33.10;100328.68;109946;1281;22946;-56
2023/05/16 12:15:24;;;;;;;13.30;3.10;;;;;;;21.68;32.89;100325.27;109868;1282;22331;-45
2023/05/16 12:17:51;;;;;;;10.20;2.50;;;;;;;21.95;32.98;100323.84;109826;1282;22249;-45
2023/05/16 12:20:18;;;;;;;15.10;2.60;;;;;;;22.19;31.54;100315.45;109848;1282;22280;-55
2023/05/16 12:22:46;;;;;;;4.30;1.80;;;;;;;22.28;32.17;100317.00;109883;1282;22277;-55
2023/05/16 12:25:30;;;;;;;10.50;1.90;;;;;;;22.31;31.39;100314.14;109911;1282;22296;-56
2023/05/16 12:28:00;;;;;;;6.80;1.90;;;;;;;22.27;31.82;100315.41;109862;1282;22466;-46
2023/05/16 12:30:30;;;;;;;7.20;2.10;;;;;;;22.27;32.17;100322.70;108406;1282;22540;-57
2023/05/16 12:33:03;;;;;;;7.40;1.80;;;;;;;22.22;31.59;100319.02;108088;1282;24272;-56
2023/05/16 12:35:36;;;;;;;4.70;2.20;;;;;;;22.05;31.81;100310.74;107641;1282;22535;-46
2023/05/16 12:38:07;;;;;;;7.30;2.10;;;;;;;21.91;32.29;100308.75;107430;1282;25546;-57
2023/05/16 12:40:41;;;;;;;13.50;2.20;;;;;;;21.81;32.69;100311.17;106758;1282;25316;-57
2023/05/16 12:43:14;;;;;;;5.20;1.90;;;;;;;21.70;32.79;100306.70;106896;1282;24207;-46
2023/05/16 12:45:42;;;;;;;6.30;2.20;;;;;;;21.56;32.74;100304.31;108785;1283;22907;-44
2023/05/16 12:48:12;;;;;;;9.90;2.30;;;;;;;21.39;32.87;100295.35;108086;1283;22541;-47
2023/05/16 12:50:40;;;;;;;4.90;2.10;;;;;;;21.22;33.10;100296.42;108872;1282;22603;-48
2023/05/16 12:53:17;;;;;;;9.60;2.00;;;;;;;21.10;33.44;100290.58;107066;1281;23114;-46
2023/05/16 12:55:44;;;;;;;5.00;2.30;;;;;;;21.01;33.63;100288.64;106954;1281;22639;-45
2023/05/16 12:58:11;;;;;;;8.90;2.30;;;;;;;20.96;33.81;100286.74;108098;1282;22234;-45
2023/05/16 13:00:38;;;;;;;10.30;3.00;;;;;;;20.93;34.46;100287.91;107393;1282;22544;-46
2023/05/16 13:03:06;;;;;;;4.70;2.40;;;;;;;20.93;34.42;100285.24;108035;1282;25275;-47
2023/05/16 13:05:34;;;;;;;5.00;2.50;;;;;;;20.92;34.20;100287.77;106950;1282;23952;-46
2023/05/16 13:08:02;;;;;;;7.40;2.30;;;;;;;20.92;34.55;100283.35;109215;1283;22211;-46
2023/05/16 13:10:30;;;;;;;4.90;1.80;;;;;;;20.92;34.53;100286.34;109863;1283;22339;-46
2023/05/16 13:12:59;;;;;;;3.60;2.20;;;;;;;20.94;34.39;100286.66;109852;1283;22413;-44
2023/05/16 13:15:26;;;;;;;5.00;2.00;;;;;;;20.94;34.31;100280.45;109842;1283;22396;-44
2023/05/16 13:17:54;;;;;;;8.30;2.60;;;;;;;20.96;34.55;100280.70;109521;1282;22531;-46
2023/05/16 13:20:22;;;;;;;8.50;2.10;;;;;;;21.00;34.77;100278.57;109765;1282;23137;-45
